sensor_id;sensor_type;location;lat;lon;timestamp;P1;durP1;ratioP1;P2;durP2;ratioP2
4652;SDS011;9900;48.738;9.306;2023-10-13T00:01:58;11.57;;;6.17;;
4652;SDS011;9900;48.738;9.306;2023-10-13T00:04:29;14.20;;;6.40;;
4652;SDS011;9900;48.738;9.306;2023-10-13T00:07:00;13.63;;;6.50;;
4652;SDS011;9900;48.738;9.306;2023-10-13T00:09:31;13.57;;;5.13;;
4652;SDS011;9900;48.738;9.306;2023-10-13T00:12:00;14.73;;;6.47;;
4652;SDS011;9900;48.738;9.306;2023-10-13T00:14:31;9.10;;;5.30;;
4652;SDS011;9900;48.738;9.306;2023-10-13T00:17:02;9.77;;;6.03;;
4652;SDS011;9900;48.738;9.306;2023-10-13T00:19:34;9.53;;;5.60;;
4652;SDS011;9900;48.738;9.306;2023-10-13T00:22:13;12.13;;;6.73;;
4652;SDS011;9900;48.738;9.306;2023-10-13T00:24:45;13.20;;;6.00;;
4652;SDS011;9900;48.738;9.306;2023-10-13T00:27:14;8.53;;;5.57;;
4652;SDS011;9900;48.738;9.306;2023-10-13T00:29:58;8.40;;;5.70;;
4652;SDS011;9900;48.738;9.306;2023-10-13T00:32:47;14.70;;;7.20;;
4652;SDS011;9900;48.738;9.306;2023-10-13T00:35:23;13.90;;;6.77;;
4652;SDS011;9900;48.738;9.306;2023-10-13T00:37:57;10.10;;;6.00;;
4652;SDS011;9900;48.738;9.306;2023-10-13T00:40:33;14.80;;;6.60;;
4652;SDS011;9900;48.738;9.306;2023-10-13T00:43:19;15.63;;;6.40;;
4652;SDS011;9900;48.738;9.306;2023-10-13T00:46:01;9.90;;;6.37;;
4652;SDS011;9900;48.738;9.306;2023-10-13T00:48:37;10.03;;;6.17;;
4652;SDS011;9900;48.738;9.306;2023-10-13T00:51:20;11.70;;;5.67;;
4652;SDS011;9900;48.738;9.306;2023-10-13T00:54:03;9.10;;;6.40;;
4652;SDS011;9900;48.738;9.306;2023-10-13T00:56:40;9.17;;;6.07;;
4652;SDS011;9900;48.738;9.306;2023-10-13T00:59:14;12.87;;;6.43;;
4652;SDS011;9900;48.738;9.306;2023-10-13T01:01:44;8.17;;;5.80;;
4652;SDS011;9900;48.738;9.306;2023-10-13T01:04:12;8.93;;;5.43;;
4652;SDS011;9900;48.738;9.306;2023-10-13T01:06:42;9.87;;;5.50;;
4652;SDS011;9900;48.738;9.306;2023-10-13T01:09:10;12.50;;;6.10;;
4652;SDS011;9900;48.738;9.306;2023-10-13T01:11:43;9.93;;;6.33;;
4652;SDS011;9900;48.738;9.306;2023-10-13T01:14:12;9.40;;;6.47;;
4652;SDS011;9900;48.738;9.306;2023-10-13T01:16:42;13.33;;;6.90;;
4652;SDS011;9900;48.738;9.306;2023-10-13T01:19:11;10.17;;;5.90;;
4652;SDS011;9900;48.738;9.306;2023-10-13T01:21:46;9.33;;;6.13;;
4652;SDS011;9900;48.738;9.306;2023-10-13T01:24:16;11.23;;;6.40;;
4652;SDS011;9900;48.738;9.306;2023-10-13T01:26:53;18.00;;;5.77;;
4652;SDS011;9900;48.738;9.306;2023-10-13T01:29:21;13.37;;;5.90;;
4652;SDS011;9900;48.738;9.306;2023-10-13T01:31:56;13.23;;;6.80;;
4652;SDS011;9900;48.738;9.306;2023-10-13T01:34:24;18.33;;;6.17;;
4652;SDS011;9900;48.738;9.306;2023-10-13T01:36:53;10.60;;;6.17;;
4652;SDS011;9900;48.738;9.306;2023-10-13T01:39:24;10.60;;;5.67;;
4652;SDS011;9900;48.738;9.306;2023-10-13T01:41:54;8.47;;;4.80;;
4652;SDS011;9900;48.738;9.306;2023-10-13T01:44:23;8.23;;;5.70;;
4652;SDS011;9900;48.738;9.306;2023-10-13T01:46:55;13.10;;;6.23;;
4652;SDS011;9900;48.738;9.306;2023-10-13T01:49:26;10.20;;;5.43;;
4652;SDS011;9900;48.738;9.306;2023-10-13T01:51:55;12.33;;;6.37;;
4652;SDS011;9900;48.738;9.306;2023-10-13T01:54:24;11.57;;;6.60;;
4652;SDS011;9900;48.738;9.306;2023-10-13T01:56:52;17.73;;;6.00;;
4652;SDS011;9900;48.738;9.306;2023-10-13T01:59:21;10.33;;;6.73;;
4652;SDS011;9900;48.738;9.306;2023-10-13T02:01:50;11.37;;;6.10;;
4652;SDS011;9900;48.738;9.306;2023-10-13T02:04:19;8.70;;;6.10;;
4652;SDS011;9900;48.738;9.306;2023-10-13T02:06:49;13.97;;;6.20;;
4652;SDS011;9900;48.738;9.306;2023-10-13T02:09:19;8.80;;;5.97;;
4652;SDS011;9900;48.738;9.306;2023-10-13T02:11:55;15.90;;;7.73;;
4652;SDS011;9900;48.738;9.306;2023-10-13T02:14:24;10.07;;;5.63;;
4652;SDS011;9900;48.738;9.306;2023-10-13T02:16:53;10.10;;;5.90;;
4652;SDS011;9900;48.738;9.306;2023-10-13T02:19:40;10.07;;;6.23;;
4652;SDS011;9900;48.738;9.306;2023-10-13T02:22:12;9.50;;;6.03;;
4652;SDS011;9900;48.738;9.306;2023-10-13T02:24:55;14.97;;;6.13;;
4652;SDS011;9900;48.738;9.306;2023-10-13T02:27:34;8.80;;;5.43;;
4652;SDS011;9900;48.738;9.306;2023-10-13T02:30:08;13.47;;;5.90;;
4652;SDS011;9900;48.738;9.306;2023-10-13T02:32:41;11.83;;;6.40;;
4652;SDS011;9900;48.738;9.306;2023-10-13T02:35:11;12.73;;;6.10;;
4652;SDS011;9900;48.738;9.306;2023-10-13T02:37:43;10.77;;;6.20;;
4652;SDS011;9900;48.738;9.306;2023-10-13T02:40:11;16.97;;;6.20;;
4652;SDS011;9900;48.738;9.306;2023-10-13T02:42:41;11.00;;;6.10;;
4652;SDS011;9900;48.738;9.306;2023-10-13T02:45:09;12.83;;;6.60;;
4652;SDS011;9900;48.738;9.306;2023-10-13T02:47:39;9.77;;;5.70;;
4652;SDS011;9900;48.738;9.306;2023-10-13T02:50:10;13.03;;;6.30;;
4652;SDS011;9900;48.738;9.306;2023-10-13T02:52:40;8.77;;;5.47;;
4652;SDS011;9900;48.738;9.306;2023-10-13T02:55:09;11.00;;;6.07;;
4652;SDS011;9900;48.738;9.306;2023-10-13T02:57:42;14.60;;;5.70;;
4652;SDS011;9900;48.738;9.306;2023-10-13T03:00:12;10.37;;;5.63;;
4652;SDS011;9900;48.738;9.306;2023-10-13T03:02:40;9.97;;;6.37;;
4652;SDS011;9900;48.738;9.306;2023-10-13T03:05:12;9.10;;;5.73;;
4652;SDS011;9900;48.738;9.306;2023-10-13T03:07:41;15.80;;;6.03;;
4652;SDS011;9900;48.738;9.306;2023-10-13T03:10:11;13.27;;;5.70;;
4652;SDS011;9900;48.738;9.306;2023-10-13T03:12:39;7.50;;;5.33;;
4652;SDS011;9900;48.738;9.306;2023-10-13T03:15:10;29.27;;;5.80;;
4652;SDS011;9900;48.738;9.306;2023-10-13T03:17:44;13.70;;;6.10;;
4652;SDS011;9900;48.738;9.306;2023-10-13T03:20:14;10.90;;;5.43;;
4652;SDS011;9900;48.738;9.306;2023-10-13T03:22:51;12.37;;;5.70;;
4652;SDS011;9900;48.738;9.306;2023-10-13T03:25:20;19.30;;;6.70;;
4652;SDS011;9900;48.738;9.306;2023-10-13T03:27:51;8.97;;;6.07;;
4652;SDS011;9900;48.738;9.306;2023-10-13T03:30:36;16.33;;;6.90;;
4652;SDS011;9900;48.738;9.306;2023-10-13T03:33:06;16.83;;;5.33;;
4652;SDS011;9900;48.738;9.306;2023-10-13T03:35:37;10.97;;;6.40;;
4652;SDS011;9900;48.738;9.306;2023-10-13T03:38:08;8.73;;;5.53;;
4652;SDS011;9900;48.738;9.306;2023-10-13T03:40:44;8.60;;;4.93;;
4652;SDS011;9900;48.738;9.306;2023-10-13T03:43:34;11.57;;;6.47;;
4652;SDS011;9900;48.738;9.306;2023-10-13T03:46:16;15.90;;;6.10;;
4652;SDS011;9900;48.738;9.306;2023-10-13T03:48:49;9.30;;;5.90;;
4652;SDS011;9900;48.738;9.306;2023-10-13T03:51:22;15.00;;;5.77;;
4652;SDS011;9900;48.738;9.306;2023-10-13T03:53:58;13.30;;;6.40;;
4652;SDS011;9900;48.738;9.306;2023-10-13T03:56:34;23.23;;;6.10;;
4652;SDS011;9900;48.738;9.306;2023-10-13T03:59:08;11.47;;;6.23;;
4652;SDS011;9900;48.738;9.306;2023-10-13T04:01:47;11.67;;;5.43;;
4652;SDS011;9900;48.738;9.306;2023-10-13T04:04:26;11.90;;;6.00;;
4652;SDS011;9900;48.738;9.306;2023-10-13T04:07:15;11.70;;;5.90;;
4652;SDS011;9900;48.738;9.306;2023-10-13T04:10:01;11.67;;;5.90;;
4652;SDS011;9900;48.738;9.306;2023-10-13T04:12:50;10.30;;;5.40;;
4652;SDS011;9900;48.738;9.306;2023-10-13T04:15:36;12.07;;;5.50;;
4652;SDS011;9900;48.738;9.306;2023-10-13T04:18:10;12.90;;;6.00;;
4652;SDS011;9900;48.738;9.306;2023-10-13T04:21:01;9.33;;;5.70;;
4652;SDS011;9900;48.738;9.306;2023-10-13T04:23:46;12.40;;;5.33;;
4652;SDS011;9900;48.738;9.306;2023-10-13T04:26:32;11.03;;;5.53;;
4652;SDS011;9900;48.738;9.306;2023-10-13T04:29:24;11.30;;;6.10;;
4652;SDS011;9900;48.738;9.306;2023-10-13T04:32:12;10.53;;;5.40;;
4652;SDS011;9900;48.738;9.306;2023-10-13T04:34:43;14.70;;;6.10;;
4652;SDS011;9900;48.738;9.306;2023-10-13T04:37:13;8.53;;;5.60;;
4652;SDS011;9900;48.738;9.306;2023-10-13T04:39:56;14.80;;;5.33;;
4652;SDS011;9900;48.738;9.306;2023-10-13T04:42:26;11.83;;;6.37;;
4652;SDS011;9900;48.738;9.306;2023-10-13T04:45:17;8.60;;;5.60;;
4652;SDS011;9900;48.738;9.306;2023-10-13T04:48:03;7.47;;;6.17;;
4652;SDS011;9900;48.738;9.306;2023-10-13T04:50:47;12.73;;;6.10;;
4652;SDS011;9900;48.738;9.306;2023-10-13T04:53:18;14.20;;;6.23;;
4652;SDS011;9900;48.738;9.306;2023-10-13T04:56:00;10.43;;;7.10;;
4652;SDS011;9900;48.738;9.306;2023-10-13T04:58:57;12.73;;;6.90;;
4652;SDS011;9900;48.738;9.306;2023-10-13T05:01:45;12.03;;;6.73;;
4652;SDS011;9900;48.738;9.306;2023-10-13T05:04:37;16.97;;;6.63;;
4652;SDS011;9900;48.738;9.306;2023-10-13T05:07:28;10.70;;;6.60;;
4652;SDS011;9900;48.738;9.306;2023-10-13T05:10:14;12.00;;;6.23;;
4652;SDS011;9900;48.738;9.306;2023-10-13T05:13:01;15.97;;;7.13;;
4652;SDS011;9900;48.738;9.306;2023-10-13T05:15:48;14.33;;;7.00;;
4652;SDS011;9900;48.738;9.306;2023-10-13T05:18:34;12.83;;;7.40;;
4652;SDS011;9900;48.738;9.306;2023-10-13T05:21:21;16.07;;;6.33;;
4652;SDS011;9900;48.738;9.306;2023-10-13T05:24:09;10.70;;;6.20;;
4652;SDS011;9900;48.738;9.306;2023-10-13T05:26:55;19.33;;;8.10;;
4652;SDS011;9900;48.738;9.306;2023-10-13T05:29:41;14.80;;;7.47;;
4652;SDS011;9900;48.738;9.306;2023-10-13T05:32:28;10.70;;;6.40;;
4652;SDS011;9900;48.738;9.306;2023-10-13T05:35:15;13.50;;;5.70;;
4652;SDS011;9900;48.738;9.306;2023-10-13T05:38:01;13.47;;;6.47;;
4652;SDS011;9900;48.738;9.306;2023-10-13T05:40:52;11.70;;;6.83;;
4652;SDS011;9900;48.738;9.306;2023-10-13T05:43:38;13.50;;;6.50;;
4652;SDS011;9900;48.738;9.306;2023-10-13T05:46:24;20.60;;;8.40;;
4652;SDS011;9900;48.738;9.306;2023-10-13T05:49:13;14.53;;;7.10;;
4652;SDS011;9900;48.738;9.306;2023-10-13T05:52:13;16.03;;;7.57;;
4652;SDS011;9900;48.738;9.306;2023-10-13T05:54:56;15.17;;;7.63;;
4652;SDS011;9900;48.738;9.306;2023-10-13T05:57:44;21.23;;;7.00;;
4652;SDS011;9900;48.738;9.306;2023-10-13T06:00:30;13.40;;;8.00;;
4652;SDS011;9900;48.738;9.306;2023-10-13T06:03:17;13.33;;;6.57;;
4652;SDS011;9900;48.738;9.306;2023-10-13T06:06:06;14.17;;;6.90;;
4652;SDS011;9900;48.738;9.306;2023-10-13T06:08:52;18.63;;;7.27;;
4652;SDS011;9900;48.738;9.306;2023-10-13T06:11:39;15.40;;;7.33;;
4652;SDS011;9900;48.738;9.306;2023-10-13T06:14:26;12.67;;;7.07;;
4652;SDS011;9900;48.738;9.306;2023-10-13T06:17:12;15.17;;;8.43;;
4652;SDS011;9900;48.738;9.306;2023-10-13T06:19:59;18.27;;;7.60;;
4652;SDS011;9900;48.738;9.306;2023-10-13T06:22:46;13.13;;;7.30;;
4652;SDS011;9900;48.738;9.306;2023-10-13T06:25:33;20.00;;;9.13;;
4652;SDS011;9900;48.738;9.306;2023-10-13T06:28:20;18.73;;;7.80;;
4652;SDS011;9900;48.738;9.306;2023-10-13T06:31:08;16.33;;;7.53;;
4652;SDS011;9900;48.738;9.306;2023-10-13T06:33:42;14.40;;;7.13;;
4652;SDS011;9900;48.738;9.306;2023-10-13T06:36:12;23.43;;;8.40;;
4652;SDS011;9900;48.738;9.306;2023-10-13T06:38:41;21.77;;;7.63;;
4652;SDS011;9900;48.738;9.306;2023-10-13T06:41:10;19.27;;;7.83;;
4652;SDS011;9900;48.738;9.306;2023-10-13T06:43:47;19.10;;;7.10;;
4652;SDS011;9900;48.738;9.306;2023-10-13T06:46:28;15.67;;;6.67;;
4652;SDS011;9900;48.738;9.306;2023-10-13T06:49:01;10.63;;;6.50;;
4652;SDS011;9900;48.738;9.306;2023-10-13T06:51:30;13.17;;;7.43;;
4652;SDS011;9900;48.738;9.306;2023-10-13T06:54:05;14.13;;;6.90;;
4652;SDS011;9900;48.738;9.306;2023-10-13T06:56:46;14.50;;;6.83;;
4652;SDS011;9900;48.738;9.306;2023-10-13T06:59:19;16.57;;;7.37;;
4652;SDS011;9900;48.738;9.306;2023-10-13T07:01:55;15.03;;;7.20;;
4652;SDS011;9900;48.738;9.306;2023-10-13T07:04:50;14.50;;;7.30;;
4652;SDS011;9900;48.738;9.306;2023-10-13T07:07:25;21.97;;;7.83;;
4652;SDS011;9900;48.738;9.306;2023-10-13T07:09:54;21.00;;;6.97;;
4652;SDS011;9900;48.738;9.306;2023-10-13T07:12:25;16.33;;;7.03;;
4652;SDS011;9900;48.738;9.306;2023-10-13T07:14:54;15.20;;;7.37;;
4652;SDS011;9900;48.738;9.306;2023-10-13T07:17:39;27.17;;;8.10;;
4652;SDS011;9900;48.738;9.306;2023-10-13T07:20:12;22.50;;;7.93;;
4652;SDS011;9900;48.738;9.306;2023-10-13T07:22:51;14.60;;;6.73;;
4652;SDS011;9900;48.738;9.306;2023-10-13T07:25:30;15.93;;;7.03;;
4652;SDS011;9900;48.738;9.306;2023-10-13T07:28:02;20.43;;;6.90;;
4652;SDS011;9900;48.738;9.306;2023-10-13T07:30:35;15.87;;;7.20;;
4652;SDS011;9900;48.738;9.306;2023-10-13T07:33:10;23.83;;;7.77;;
4652;SDS011;9900;48.738;9.306;2023-10-13T07:35:41;12.73;;;7.27;;
4652;SDS011;9900;48.738;9.306;2023-10-13T07:38:10;13.43;;;7.23;;
4652;SDS011;9900;48.738;9.306;2023-10-13T07:40:40;15.83;;;8.40;;
4652;SDS011;9900;48.738;9.306;2023-10-13T07:43:09;14.53;;;6.50;;
4652;SDS011;9900;48.738;9.306;2023-10-13T07:45:39;15.60;;;6.93;;
4652;SDS011;9900;48.738;9.306;2023-10-13T07:48:10;14.70;;;6.60;;
4652;SDS011;9900;48.738;9.306;2023-10-13T07:50:48;12.17;;;6.40;;
4652;SDS011;9900;48.738;9.306;2023-10-13T07:53:28;16.60;;;7.90;;
4652;SDS011;9900;48.738;9.306;2023-10-13T07:56:02;20.53;;;7.20;;
4652;SDS011;9900;48.738;9.306;2023-10-13T07:58:33;14.50;;;7.00;;
4652;SDS011;9900;48.738;9.306;2023-10-13T08:01:14;18.40;;;7.50;;
4652;SDS011;9900;48.738;9.306;2023-10-13T08:03:47;16.80;;;7.33;;
4652;SDS011;9900;48.738;9.306;2023-10-13T08:06:32;15.15;;;6.82;;
4652;SDS011;9900;48.738;9.306;2023-10-13T08:09:04;18.53;;;7.07;;
4652;SDS011;9900;48.738;9.306;2023-10-13T08:11:56;14.90;;;7.37;;
4652;SDS011;9900;48.738;9.306;2023-10-13T08:14:25;13.57;;;7.03;;
4652;SDS011;9900;48.738;9.306;2023-10-13T08:17:06;17.70;;;7.17;;
4652;SDS011;9900;48.738;9.306;2023-10-13T08:19:39;16.17;;;6.67;;
4652;SDS011;9900;48.738;9.306;2023-10-13T08:22:13;22.23;;;7.00;;
4652;SDS011;9900;48.738;9.306;2023-10-13T08:25:03;21.47;;;7.03;;
4652;SDS011;9900;48.738;9.306;2023-10-13T08:28:13;13.77;;;6.00;;
4652;SDS011;9900;48.738;9.306;2023-10-13T08:31:10;18.10;;;6.60;;
4652;SDS011;9900;48.738;9.306;2023-10-13T08:33:49;17.00;;;6.03;;
4652;SDS011;9900;48.738;9.306;2023-10-13T08:36:26;22.47;;;7.17;;
4652;SDS011;9900;48.738;9.306;2023-10-13T08:38:57;17.13;;;6.93;;
4652;SDS011;9900;48.738;9.306;2023-10-13T08:41:43;9.80;;;6.33;;
4652;SDS011;9900;48.738;9.306;2023-10-13T08:44:26;24.13;;;7.13;;
4652;SDS011;9900;48.738;9.306;2023-10-13T08:47:12;17.00;;;7.57;;
4652;SDS011;9900;48.738;9.306;2023-10-13T08:49:45;11.17;;;6.67;;
4652;SDS011;9900;48.738;9.306;2023-10-13T08:52:20;18.10;;;7.67;;
4652;SDS011;9900;48.738;9.306;2023-10-13T08:55:13;19.00;;;7.43;;
4652;SDS011;9900;48.738;9.306;2023-10-13T08:57:57;18.90;;;7.50;;
4652;SDS011;9900;48.738;9.306;2023-10-13T09:00:31;19.27;;;7.03;;
4652;SDS011;9900;48.738;9.306;2023-10-13T09:03:14;24.53;;;7.13;;
4652;SDS011;9900;48.738;9.306;2023-10-13T09:05:58;14.67;;;6.87;;
4652;SDS011;9900;48.738;9.306;2023-10-13T09:08:30;19.57;;;7.33;;
4652;SDS011;9900;48.738;9.306;2023-10-13T09:11:11;11.27;;;6.30;;
4652;SDS011;9900;48.738;9.306;2023-10-13T09:13:40;18.23;;;5.90;;
4652;SDS011;9900;48.738;9.306;2023-10-13T09:16:12;13.00;;;5.73;;
4652;SDS011;9900;48.738;9.306;2023-10-13T09:18:50;14.90;;;6.33;;
4652;SDS011;9900;48.738;9.306;2023-10-13T09:21:20;17.60;;;5.37;;
4652;SDS011;9900;48.738;9.306;2023-10-13T09:24:12;11.93;;;5.33;;
4652;SDS011;9900;48.738;9.306;2023-10-13T09:26:46;9.83;;;4.67;;
4652;SDS011;9900;48.738;9.306;2023-10-13T09:29:17;9.10;;;4.90;;
4652;SDS011;9900;48.738;9.306;2023-10-13T09:31:46;20.53;;;5.50;;
4652;SDS011;9900;48.738;9.306;2023-10-13T09:34:21;10.97;;;5.20;;
4652;SDS011;9900;48.738;9.306;2023-10-13T09:36:51;22.33;;;5.00;;
4652;SDS011;9900;48.738;9.306;2023-10-13T09:39:25;13.87;;;4.87;;
4652;SDS011;9900;48.738;9.306;2023-10-13T09:42:09;10.53;;;4.20;;
4652;SDS011;9900;48.738;9.306;2023-10-13T09:44:40;9.70;;;4.23;;
4652;SDS011;9900;48.738;9.306;2023-10-13T09:47:09;10.33;;;4.80;;
4652;SDS011;9900;48.738;9.306;2023-10-13T09:49:45;8.53;;;4.30;;
4652;SDS011;9900;48.738;9.306;2023-10-13T09:52:16;13.23;;;4.30;;
4652;SDS011;9900;48.738;9.306;2023-10-13T09:54:59;10.83;;;4.17;;
4652;SDS011;9900;48.738;9.306;2023-10-13T09:57:32;16.20;;;5.40;;
4652;SDS011;9900;48.738;9.306;2023-10-13T10:00:06;12.83;;;3.80;;
4652;SDS011;9900;48.738;9.306;2023-10-13T10:02:55;12.63;;;3.97;;
4652;SDS011;9900;48.738;9.306;2023-10-13T10:05:31;15.97;;;4.57;;
4652;SDS011;9900;48.738;9.306;2023-10-13T10:08:03;8.00;;;3.83;;
4652;SDS011;9900;48.738;9.306;2023-10-13T10:10:41;10.40;;;4.27;;
4652;SDS011;9900;48.738;9.306;2023-10-13T10:13:21;9.33;;;3.80;;
4652;SDS011;9900;48.738;9.306;2023-10-13T10:15:58;9.33;;;3.73;;
4652;SDS011;9900;48.738;9.306;2023-10-13T10:18:29;7.13;;;3.10;;
4652;SDS011;9900;48.738;9.306;2023-10-13T10:21:03;9.50;;;4.30;;
4652;SDS011;9900;48.738;9.306;2023-10-13T10:23:35;11.10;;;3.57;;
4652;SDS011;9900;48.738;9.306;2023-10-13T10:26:11;6.73;;;3.10;;
4652;SDS011;9900;48.738;9.306;2023-10-13T10:28:42;12.00;;;4.23;;
4652;SDS011;9900;48.738;9.306;2023-10-13T10:31:12;11.70;;;3.60;;
4652;SDS011;9900;48.738;9.306;2023-10-13T10:33:44;7.67;;;3.20;;
4652;SDS011;9900;48.738;9.306;2023-10-13T10:36:29;4.53;;;2.70;;
4652;SDS011;9900;48.738;9.306;2023-10-13T10:38:58;9.23;;;3.00;;
4652;SDS011;9900;48.738;9.306;2023-10-13T10:41:29;7.37;;;2.97;;
4652;SDS011;9900;48.738;9.306;2023-10-13T10:44:11;6.47;;;3.17;;
4652;SDS011;9900;48.738;9.306;2023-10-13T10:46:45;10.73;;;3.23;;
4652;SDS011;9900;48.738;9.306;2023-10-13T10:49:25;11.13;;;3.60;;
4652;SDS011;9900;48.738;9.306;2023-10-13T10:51:58;6.20;;;2.90;;
4652;SDS011;9900;48.738;9.306;2023-10-13T10:54:31;22.87;;;3.97;;
4652;SDS011;9900;48.738;9.306;2023-10-13T10:57:02;17.17;;;4.40;;
4652;SDS011;9900;48.738;9.306;2023-10-13T10:59:39;14.27;;;4.57;;
4652;SDS011;9900;48.738;9.306;2023-10-13T11:02:09;8.30;;;3.33;;
4652;SDS011;9900;48.738;9.306;2023-10-13T11:04:42;15.97;;;3.80;;
4652;SDS011;9900;48.738;9.306;2023-10-13T11:07:22;12.90;;;3.10;;
4652;SDS011;9900;48.738;9.306;2023-10-13T11:09:53;9.93;;;3.60;;
4652;SDS011;9900;48.738;9.306;2023-10-13T11:12:35;11.60;;;3.30;;
4652;SDS011;9900;48.738;9.306;2023-10-13T11:15:04;16.97;;;3.20;;
4652;SDS011;9900;48.738;9.306;2023-10-13T11:17:41;6.83;;;3.10;;
4652;SDS011;9900;48.738;9.306;2023-10-13T11:20:16;6.87;;;2.70;;
4652;SDS011;9900;48.738;9.306;2023-10-13T11:22:53;7.77;;;2.73;;
4652;SDS011;9900;48.738;9.306;2023-10-13T11:25:23;5.17;;;2.60;;
4652;SDS011;9900;48.738;9.306;2023-10-13T11:28:09;7.03;;;2.73;;
4652;SDS011;9900;48.738;9.306;2023-10-13T11:30:45;7.70;;;3.13;;
4652;SDS011;9900;48.738;9.306;2023-10-13T11:33:17;21.70;;;3.00;;
4652;SDS011;9900;48.738;9.306;2023-10-13T11:35:51;9.17;;;2.37;;
4652;SDS011;9900;48.738;9.306;2023-10-13T11:38:27;6.47;;;2.53;;
4652;SDS011;9900;48.738;9.306;2023-10-13T11:40:57;4.53;;;2.77;;
4652;SDS011;9900;48.738;9.306;2023-10-13T11:43:51;8.70;;;3.00;;
4652;SDS011;9900;48.738;9.306;2023-10-13T11:46:32;7.07;;;2.80;;
4652;SDS011;9900;48.738;9.306;2023-10-13T11:49:19;7.97;;;2.73;;
4652;SDS011;9900;48.738;9.306;2023-10-13T11:51:59;11.00;;;3.60;;
4652;SDS011;9900;48.738;9.306;2023-10-13T11:54:44;6.97;;;3.50;;
4652;SDS011;9900;48.738;9.306;2023-10-13T11:57:14;14.00;;;3.07;;
4652;SDS011;9900;48.738;9.306;2023-10-13T11:59:48;3.97;;;2.23;;
4652;SDS011;9900;48.738;9.306;2023-10-13T12:02:46;7.67;;;2.93;;
4652;SDS011;9900;48.738;9.306;2023-10-13T12:05:33;6.20;;;3.07;;
4652;SDS011;9900;48.738;9.306;2023-10-13T12:08:17;9.70;;;3.80;;
4652;SDS011;9900;48.738;9.306;2023-10-13T12:11:00;12.80;;;2.77;;
4652;SDS011;9900;48.738;9.306;2023-10-13T12:13:49;6.03;;;2.73;;
4652;SDS011;9900;48.738;9.306;2023-10-13T12:16:19;3.60;;;2.27;;
4652;SDS011;9900;48.738;9.306;2023-10-13T12:18:49;8.40;;;2.80;;
4652;SDS011;9900;48.738;9.306;2023-10-13T12:21:20;4.63;;;3.00;;
4652;SDS011;9900;48.738;9.306;2023-10-13T12:23:49;13.70;;;3.00;;
4652;SDS011;9900;48.738;9.306;2023-10-13T12:26:21;6.97;;;3.30;;
4652;SDS011;9900;48.738;9.306;2023-10-13T12:28:59;8.23;;;2.83;;
4652;SDS011;9900;48.738;9.306;2023-10-13T12:31:35;5.73;;;2.63;;
4652;SDS011;9900;48.738;9.306;2023-10-13T12:34:06;11.10;;;3.33;;
4652;SDS011;9900;48.738;9.306;2023-10-13T12:36:46;3.83;;;2.63;;
4652;SDS011;9900;48.738;9.306;2023-10-13T12:39:33;6.60;;;2.90;;
4652;SDS011;9900;48.738;9.306;2023-10-13T12:42:19;5.20;;;3.13;;
4652;SDS011;9900;48.738;9.306;2023-10-13T12:45:06;7.97;;;3.00;;
4652;SDS011;9900;48.738;9.306;2023-10-13T12:47:53;6.73;;;2.90;;
4652;SDS011;9900;48.738;9.306;2023-10-13T12:50:40;5.43;;;3.00;;
4652;SDS011;9900;48.738;9.306;2023-10-13T12:53:12;18.67;;;3.27;;
4652;SDS011;9900;48.738;9.306;2023-10-13T12:55:42;11.80;;;3.20;;
4652;SDS011;9900;48.738;9.306;2023-10-13T12:58:10;10.53;;;3.80;;
4652;SDS011;9900;48.738;9.306;2023-10-13T13:00:39;5.93;;;3.57;;
4652;SDS011;9900;48.738;9.306;2023-10-13T13:03:17;10.93;;;3.43;;
4652;SDS011;9900;48.738;9.306;2023-10-13T13:05:46;5.70;;;2.77;;
4652;SDS011;9900;48.738;9.306;2023-10-13T13:08:16;7.07;;;2.93;;
4652;SDS011;9900;48.738;9.306;2023-10-13T13:10:50;10.53;;;2.90;;
4652;SDS011;9900;48.738;9.306;2023-10-13T13:13:20;4.17;;;3.43;;
4652;SDS011;9900;48.738;9.306;2023-10-13T13:15:52;8.77;;;2.90;;
4652;SDS011;9900;48.738;9.306;2023-10-13T13:18:23;7.80;;;2.50;;
4652;SDS011;9900;48.738;9.306;2023-10-13T13:20:52;10.77;;;3.10;;
4652;SDS011;9900;48.738;9.306;2023-10-13T13:23:23;5.53;;;3.23;;
4652;SDS011;9900;48.738;9.306;2023-10-13T13:25:54;6.37;;;3.50;;
4652;SDS011;9900;48.738;9.306;2023-10-13T13:28:25;7.33;;;3.53;;
4652;SDS011;9900;48.738;9.306;2023-10-13T13:30:56;7.73;;;3.50;;
4652;SDS011;9900;48.738;9.306;2023-10-13T13:33:27;9.53;;;3.30;;
4652;SDS011;9900;48.738;9.306;2023-10-13T13:36:01;5.70;;;2.77;;
4652;SDS011;9900;48.738;9.306;2023-10-13T13:38:31;9.87;;;2.83;;
4652;SDS011;9900;48.738;9.306;2023-10-13T13:41:01;7.17;;;2.90;;
4652;SDS011;9900;48.738;9.306;2023-10-13T13:43:37;7.03;;;2.80;;
4652;SDS011;9900;48.738;9.306;2023-10-13T13:46:06;5.63;;;2.93;;
4652;SDS011;9900;48.738;9.306;2023-10-13T13:48:39;3.50;;;2.43;;
4652;SDS011;9900;48.738;9.306;2023-10-13T13:51:09;7.80;;;3.00;;
4652;SDS011;9900;48.738;9.306;2023-10-13T13:53:46;9.17;;;3.33;;
4652;SDS011;9900;48.738;9.306;2023-10-13T13:56:16;4.70;;;2.60;;
4652;SDS011;9900;48.738;9.306;2023-10-13T13:58:46;4.43;;;2.93;;
4652;SDS011;9900;48.738;9.306;2023-10-13T14:01:16;9.10;;;2.73;;
4652;SDS011;9900;48.738;9.306;2023-10-13T14:03:48;2.90;;;2.60;;
4652;SDS011;9900;48.738;9.306;2023-10-13T14:06:19;9.40;;;2.70;;
4652;SDS011;9900;48.738;9.306;2023-10-13T14:08:51;7.30;;;2.80;;
4652;SDS011;9900;48.738;9.306;2023-10-13T14:11:24;11.70;;;2.80;;
4652;SDS011;9900;48.738;9.306;2023-10-13T14:14:12;7.30;;;3.00;;
4652;SDS011;9900;48.738;9.306;2023-10-13T14:16:56;7.80;;;2.40;;
4652;SDS011;9900;48.738;9.306;2023-10-13T14:19:36;8.10;;;2.77;;
4652;SDS011;9900;48.738;9.306;2023-10-13T14:22:08;6.03;;;2.40;;
4652;SDS011;9900;48.738;9.306;2023-10-13T14:24:40;4.90;;;3.00;;
4652;SDS011;9900;48.738;9.306;2023-10-13T14:27:15;4.70;;;2.40;;
4652;SDS011;9900;48.738;9.306;2023-10-13T14:29:47;8.67;;;2.47;;
4652;SDS011;9900;48.738;9.306;2023-10-13T14:32:20;22.93;;;3.17;;
4652;SDS011;9900;48.738;9.306;2023-10-13T14:34:54;11.50;;;2.97;;
4652;SDS011;9900;48.738;9.306;2023-10-13T14:37:24;14.10;;;3.10;;
4652;SDS011;9900;48.738;9.306;2023-10-13T14:39:58;8.20;;;2.97;;
4652;SDS011;9900;48.738;9.306;2023-10-13T14:42:28;7.43;;;2.90;;
4652;SDS011;9900;48.738;9.306;2023-10-13T14:45:03;9.77;;;3.73;;
4652;SDS011;9900;48.738;9.306;2023-10-13T14:47:40;3.60;;;2.63;;
4652;SDS011;9900;48.738;9.306;2023-10-13T14:50:11;8.20;;;3.00;;
4652;SDS011;9900;48.738;9.306;2023-10-13T14:52:47;3.97;;;2.43;;
4652;SDS011;9900;48.738;9.306;2023-10-13T14:55:17;9.00;;;3.30;;
4652;SDS011;9900;48.738;9.306;2023-10-13T14:58:01;9.17;;;3.10;;
4652;SDS011;9900;48.738;9.306;2023-10-13T15:00:32;5.27;;;2.80;;
4652;SDS011;9900;48.738;9.306;2023-10-13T15:03:02;6.47;;;2.80;;
4652;SDS011;9900;48.738;9.306;2023-10-13T15:05:38;8.13;;;2.93;;
4652;SDS011;9900;48.738;9.306;2023-10-13T15:08:10;8.40;;;2.37;;
4652;SDS011;9900;48.738;9.306;2023-10-13T15:10:39;4.63;;;2.40;;
4652;SDS011;9900;48.738;9.306;2023-10-13T15:13:10;4.10;;;2.20;;
4652;SDS011;9900;48.738;9.306;2023-10-13T15:15:39;8.50;;;1.97;;
4652;SDS011;9900;48.738;9.306;2023-10-13T15:18:08;7.17;;;2.80;;
4652;SDS011;9900;48.738;9.306;2023-10-13T15:20:42;3.63;;;2.33;;
4652;SDS011;9900;48.738;9.306;2023-10-13T15:23:11;3.60;;;2.47;;
4652;SDS011;9900;48.738;9.306;2023-10-13T15:25:42;7.30;;;2.70;;
4652;SDS011;9900;48.738;9.306;2023-10-13T15:28:17;6.80;;;2.50;;
4652;SDS011;9900;48.738;9.306;2023-10-13T15:30:48;9.23;;;2.40;;
4652;SDS011;9900;48.738;9.306;2023-10-13T15:33:24;6.03;;;2.23;;
4652;SDS011;9900;48.738;9.306;2023-10-13T15:35:55;11.03;;;2.80;;
4652;SDS011;9900;48.738;9.306;2023-10-13T15:38:25;5.23;;;2.10;;
4652;SDS011;9900;48.738;9.306;2023-10-13T15:40:55;3.37;;;3.00;;
4652;SDS011;9900;48.738;9.306;2023-10-13T15:43:25;3.77;;;1.90;;
4652;SDS011;9900;48.738;9.306;2023-10-13T15:45:56;5.60;;;1.90;;
4652;SDS011;9900;48.738;9.306;2023-10-13T15:48:52;8.63;;;2.33;;
4652;SDS011;9900;48.738;9.306;2023-10-13T15:51:42;5.37;;;2.77;;
4652;SDS011;9900;48.738;9.306;2023-10-13T15:54:11;3.43;;;1.90;;
4652;SDS011;9900;48.738;9.306;2023-10-13T15:56:45;4.80;;;2.40;;
4652;SDS011;9900;48.738;9.306;2023-10-13T15:59:15;6.00;;;2.90;;
4652;SDS011;9900;48.738;9.306;2023-10-13T16:01:44;5.43;;;2.43;;
4652;SDS011;9900;48.738;9.306;2023-10-13T16:04:15;7.10;;;2.33;;